Adelanto, California
Current Conditions -  °F | °C
As of 9:15 PM on Wednesday 22 Oct 2014 (Local Time) from KVCV Reporting Station
Clear Clear  
Wind Chill: 16°   Ceiling: Unl
Heat Index: 16°   Visibility: 10mi
Dew Point: -5°   Wind: 5mph
Humidity: 23%   Direction: 210°SSW
Pressure: 30.07"   Gusts: NA
Location:  34.58°N, 117.41°W
Report Text: KVCV 230415Z AUTO 21004KT 10SM CLR 16/M05 A3007 RMK AO2
Loading
Personal Weather Stations






























Interactive Weather Map
Tropical Storm Tracking
New forecast layout! Learn more

10-Day Weather Forecast

Advertisements
Track Severe Weather on mobile